Time;durP1;ratioP1;P1;durP2;ratioP2;P2;SDS_P1;SDS_P2;PMS_P1;PMS_P2;Temp;Humidity;BMP_temperature;BMP_pressure;BME280_temperature;BME280_humidity;BME280_pressure;Samples;Min_cycle;Max_cycle;Signal;HPM_P1;HPM_P2
2022/04/29 00:03:38;;;;;;;3.90;2.55;;;16.40;50.10;;;;;;10160272;28;20047;-64
2022/04/29 00:08:28;;;;;;;4.05;2.25;;;16.40;50.30;;;;;;10153541;28;20173;-64
2022/04/29 00:13:19;;;;;;;6.53;2.67;;;16.50;50.50;;;;;;10160273;28;20033;-62
2022/04/29 00:18:10;;;;;;;3.42;2.22;;;16.30;50.50;;;;;;10156989;28;20420;-63
2022/04/29 00:23:01;;;;;;;5.13;2.33;;;16.30;50.80;;;;;;10147415;28;20048;-63
2022/04/29 00:27:52;;;;;;;3.13;2.42;;;16.20;51.00;;;;;;10158179;28;20047;-62
2022/04/29 00:32:43;;;;;;;4.95;2.28;;;16.10;51.00;;;;;;10150625;28;20035;-67
2022/04/29 00:37:44;;;;;;;2.40;2.15;;;16.10;51.40;;;;;;10150866;28;20629;-63
2022/04/29 00:42:35;;;;;;;3.00;2.35;;;16.10;51.80;;;;;;10139046;28;20472;-66
2022/04/29 00:47:25;;;;;;;3.70;2.53;;;16.10;51.90;;;;;;10147947;28;20035;-65
2022/04/29 00:52:18;;;;;;;4.47;2.53;;;16.00;51.90;;;;;;10152663;28;20489;-62
2022/04/29 00:57:19;;;;;;;3.55;2.45;;;16.00;52.30;;;;;;10151456;28;20542;-63
2022/04/29 01:02:11;;;;;;;3.53;2.88;;;15.90;52.70;;;;;;10158615;28;20040;-64
2022/04/29 01:07:03;;;;;;;4.32;2.50;;;15.80;52.90;;;;;;10151466;28;20016;-63
2022/04/29 01:11:54;;;;;;;4.25;2.70;;;15.70;53.20;;;;;;10158923;28;20024;-64
2022/04/29 01:16:46;;;;;;;3.78;2.78;;;15.60;53.20;;;;;;10155949;28;20557;-62
2022/04/29 01:21:36;;;;;;;4.80;3.03;;;15.40;53.40;;;;;;10141213;28;20130;-63
2022/04/29 01:26:27;;;;;;;4.93;3.35;;;15.50;53.60;;;;;;10155900;28;20151;-63
2022/04/29 01:31:23;;;;;;;5.82;2.47;;;15.30;53.90;;;;;;10150566;28;20047;-62
2022/04/29 01:36:14;;;;;;;4.70;3.05;;;15.20;54.40;;;;;;10140206;28;20032;-61
2022/04/29 01:41:06;;;;;;;5.30;3.25;;;15.10;54.40;;;;;;10151383;28;20529;-65
2022/04/29 01:45:56;;;;;;;5.97;3.45;;;15.00;54.70;;;;;;10146146;28;20050;-64
2022/04/29 01:50:48;;;;;;;5.45;3.55;;;14.70;55.00;;;;;;10148396;28;20585;-63
2022/04/29 01:55:38;;;;;;;4.50;3.50;;;14.70;55.40;;;;;;10151292;28;20110;-61
2022/04/29 02:00:29;;;;;;;5.70;3.63;;;14.70;55.40;;;;;;10150764;28;20119;-62
2022/04/29 02:05:20;;;;;;;5.70;3.45;;;14.70;55.60;;;;;;10154710;28;20510;-63
2022/04/29 02:10:10;;;;;;;4.75;3.38;;;14.60;55.90;;;;;;10157929;28;20529;-62
2022/04/29 02:15:02;;;;;;;4.63;3.58;;;14.50;56.40;;;;;;10147160;28;20045;-63
2022/04/29 02:19:53;;;;;;;5.22;4.18;;;14.50;56.30;;;;;;10146468;28;20035;-63
2022/04/29 02:24:44;;;;;;;4.30;3.75;;;14.40;56.80;;;;;;10149702;28;20060;-68
2022/04/29 02:29:35;;;;;;;7.47;3.83;;;14.40;56.90;;;;;;10150908;28;20069;-64
2022/04/29 02:34:26;;;;;;;6.05;3.72;;;14.20;57.30;;;;;;10158587;28;20037;-62
2022/04/29 02:39:17;;;;;;;5.50;3.53;;;14.10;58.20;;;;;;10150333;28;20042;-63
2022/04/29 02:44:08;;;;;;;5.30;3.88;;;13.90;58.00;;;;;;10139848;28;20047;-68
2022/04/29 02:48:59;;;;;;;6.57;3.78;;;14.00;58.10;;;;;;10152319;28;20029;-65
2022/04/29 02:53:51;;;;;;;4.93;3.70;;;13.90;58.20;;;;;;10152845;28;20086;-64
2022/04/29 02:58:42;;;;;;;4.95;3.15;;;13.90;58.30;;;;;;10158210;28;20183;-62
2022/04/29 03:03:32;;;;;;;4.75;3.30;;;13.80;58.70;;;;;;10160232;28;20202;-66
2022/04/29 03:08:23;;;;;;;4.47;3.05;;;13.80;58.80;;;;;;10157690;28;20028;-66
2022/04/29 03:13:15;;;;;;;3.78;3.15;;;13.70;59.20;;;;;;10159777;28;20399;-66
2022/04/29 03:18:18;;;;;;;4.93;3.83;;;13.70;59.90;;;;;;10164606;28;20051;-63
2022/04/29 03:23:09;;;;;;;4.45;4.03;;;13.80;58.70;;;;;;10146050;28;20068;-63
2022/04/29 03:28:00;;;;;;;5.80;4.00;;;13.70;59.20;;;;;;10166416;28;20179;-61
2022/04/29 03:32:56;;;;;;;5.47;3.95;;;13.50;59.70;;;;;;10160776;28;20252;-63
2022/04/29 03:37:52;;;;;;;7.15;4.25;;;13.30;60.20;;;;;;10152225;28;20454;-65
2022/04/29 03:42:43;;;;;;;5.10;3.50;;;13.30;60.30;;;;;;10153938;28;20474;-65
2022/04/29 03:47:33;;;;;;;5.28;3.42;;;13.30;60.30;;;;;;10146962;28;20028;-62
2022/04/29 03:52:25;;;;;;;4.75;3.60;;;13.10;60.90;;;;;;10167197;28;20499;-63
2022/04/29 03:57:15;;;;;;;5.43;4.18;;;13.10;61.10;;;;;;10159842;28;20505;-63
2022/04/29 04:02:06;;;;;;;4.13;3.63;;;13.10;61.40;;;;;;10160611;28;20055;-63
2022/04/29 04:07:01;;;;;;;4.63;3.78;;;12.80;62.00;;;;;;10151045;28;20025;-62
2022/04/29 04:11:51;;;;;;;4.47;3.65;;;12.90;61.90;;;;;;10149603;28;20119;-62
2022/04/29 04:16:42;;;;;;;5.85;4.22;;;13.00;62.10;;;;;;10140730;28;20103;-65
2022/04/29 04:21:33;;;;;;;5.78;3.60;;;12.90;62.30;;;;;;10160747;28;20032;-60
2022/04/29 04:26:24;;;;;;;7.28;4.25;;;12.80;62.80;;;;;;10166890;28;20060;-62
2022/04/29 04:31:15;;;;;;;6.00;4.32;;;12.80;63.00;;;;;;10149865;28;20045;-61
2022/04/29 04:36:06;;;;;;;7.45;4.28;;;12.70;63.70;;;;;;10152178;28;20036;-62
2022/04/29 04:40:58;;;;;;;5.05;3.95;;;12.70;63.80;;;;;;10152298;28;20028;-65
2022/04/29 04:45:49;;;;;;;4.88;3.58;;;12.60;64.10;;;;;;10149915;28;20046;-63
2022/04/29 04:50:40;;;;;;;4.78;3.90;;;12.60;64.40;;;;;;10152614;28;20239;-64
2022/04/29 04:55:31;;;;;;;5.30;3.72;;;12.60;65.00;;;;;;10153911;28;20031;-63
2022/04/29 05:00:22;;;;;;;5.85;3.45;;;12.60;65.10;;;;;;10156091;28;20058;-62
2022/04/29 05:05:12;;;;;;;4.82;3.65;;;12.60;65.40;;;;;;10162326;28;20082;-65
2022/04/29 05:10:07;;;;;;;5.60;3.92;;;12.50;65.90;;;;;;10147085;28;20035;-66
2022/04/29 05:14:58;;;;;;;8.23;4.17;;;12.60;65.70;;;;;;10143724;28;20024;-69
2022/04/29 05:19:49;;;;;;;7.03;4.20;;;12.70;65.80;;;;;;10152553;28;20024;-67
2022/04/29 05:24:39;;;;;;;4.47;3.33;;;12.70;66.30;;;;;;10145715;28;20131;-67
2022/04/29 05:29:30;;;;;;;5.75;3.47;;;12.60;67.40;;;;;;10162827;28;20032;-67
2022/04/29 05:34:21;;;;;;;5.88;3.70;;;12.60;67.80;;;;;;10145875;28;20032;-67
2022/04/29 05:44:21;;;;;;;5.35;4.22;;;12.70;68.10;;;;;;10142022;28;20517;-69
2022/04/29 05:49:11;;;;;;;5.43;4.47;;;12.80;67.90;;;;;;10133770;28;20039;-69
2022/04/29 05:54:02;;;;;;;5.93;4.13;;;12.90;68.00;;;;;;10149432;28;20032;-64
2022/04/29 05:58:53;;;;;;;5.95;4.20;;;12.80;68.60;;;;;;10147647;28;20135;-63
2022/04/29 06:03:44;;;;;;;5.65;3.72;;;12.90;68.60;;;;;;10156416;28;20042;-65
2022/04/29 06:08:34;;;;;;;5.32;3.95;;;12.80;69.20;;;;;;10164404;28;20396;-67
2022/04/29 06:13:25;;;;;;;5.95;4.00;;;12.90;69.10;;;;;;10155713;28;20040;-64
2022/04/29 06:18:16;;;;;;;6.18;4.20;;;12.90;69.70;;;;;;10137433;28;20297;-66
2022/04/29 06:23:06;;;;;;;6.97;4.10;;;13.00;70.00;;;;;;10156702;28;20058;-64
2022/04/29 06:27:57;;;;;;;10.32;4.63;;;13.20;69.50;;;;;;10160786;28;20044;-62
2022/04/29 06:32:48;;;;;;;10.52;5.97;;;13.50;69.20;;;;;;10151157;28;20024;-62
2022/04/29 06:37:38;;;;;;;6.40;4.50;;;13.60;68.90;;;;;;10150965;28;20019;-63
2022/04/29 06:42:29;;;;;;;7.80;4.38;;;13.80;68.90;;;;;;10158643;28;20330;-62
2022/04/29 06:47:20;;;;;;;7.38;3.97;;;13.80;69.10;;;;;;10135900;28;20036;-63
2022/04/29 06:52:11;;;;;;;7.97;4.38;;;13.90;69.10;;;;;;10154852;28;20028;-64
2022/04/29 06:57:02;;;;;;;5.53;4.38;;;14.00;69.00;;;;;;10148610;28;20028;-61
2022/04/29 07:01:53;;;;;;;5.13;4.47;;;13.90;69.50;;;;;;10163386;28;20450;-63
2022/04/29 07:06:44;;;;;;;5.30;3.97;;;13.90;69.50;;;;;;10155470;28;20020;-61
2022/04/29 07:11:35;;;;;;;7.72;3.58;;;14.00;69.60;;;;;;10141601;28;20083;-63
2022/04/29 07:16:25;;;;;;;8.25;4.40;;;14.00;69.80;;;;;;10153612;28;20511;-63
2022/04/29 07:21:16;;;;;;;6.63;4.35;;;14.20;69.30;;;;;;10151314;28;20111;-63
2022/04/29 07:26:08;;;;;;;6.88;5.43;;;14.40;69.10;;;;;;10153634;28;20676;-63
2022/04/29 07:31:00;;;;;;;5.80;4.22;;;14.50;69.30;;;;;;10151639;28;20108;-65
2022/04/29 07:46:10;;;;;;;6.68;4.78;;;14.50;69.70;;;;;;10154994;28;20051;-63
2022/04/29 07:51:01;;;;;;;5.55;4.20;;;14.80;69.50;;;;;;10152993;28;20024;-62
2022/04/29 07:55:52;;;;;;;5.75;4.20;;;15.00;69.70;;;;;;10151586;28;20048;-66
2022/04/29 08:00:43;;;;;;;5.82;4.30;;;15.20;69.40;;;;;;10148163;28;20065;-67
2022/04/29 08:05:33;;;;;;;6.63;3.97;;;15.30;69.50;;;;;;10157783;28;20074;-67
2022/04/29 08:10:24;;;;;;;7.00;4.55;;;15.40;69.50;;;;;;10158540;28;20055;-67
2022/04/29 08:15:15;;;;;;;5.95;4.68;;;15.60;69.40;;;;;;10142627;28;20502;-68
2022/04/29 08:20:08;;;;;;;7.43;4.53;;;15.70;69.30;;;;;;10153265;28;20046;-63
2022/04/29 08:24:58;;;;;;;6.78;4.50;;;16.00;69.00;;;;;;10154836;28;20441;-63
2022/04/29 08:29:49;;;;;;;5.50;4.40;;;16.00;69.10;;;;;;10149683;28;20630;-66
2022/04/29 08:34:42;;;;;;;5.80;4.40;;;16.10;68.80;;;;;;10149012;28;20032;-64
2022/04/29 08:39:32;;;;;;;7.22;4.78;;;16.20;68.60;;;;;;10148432;28;20542;-63
2022/04/29 08:44:26;;;;;;;5.03;4.25;;;16.20;68.70;;;;;;10157373;28;20036;-65
2022/04/29 08:49:18;;;;;;;7.32;5.10;;;16.40;68.50;;;;;;10149537;28;20020;-63
2022/04/29 08:58:36;;;;;;;5.00;4.03;;;16.40;68.50;;;;;;10149263;28;20033;-65
2022/04/29 08:59:19;;;;;;;9.55;5.57;;;16.50;68.20;;;;;;10159659;28;20195;-64
2022/04/29 09:04:10;;;;;;;5.50;4.20;;;16.80;67.80;;;;;;10156893;28;20529;-63
2022/04/29 09:09:08;;;;;;;7.07;4.78;;;16.90;67.80;;;;;;10156951;28;20027;-63
2022/04/29 09:14:26;;;;;;;7.13;4.32;;;17.00;67.20;;;;;;10157032;28;20024;-64
2022/04/29 09:19:35;;;;;;;5.93;3.92;;;17.00;67.20;;;;;;10140886;28;20410;-64
2022/04/29 09:24:25;;;;;;;6.45;4.70;;;16.90;67.00;;;;;;10137710;28;20435;-63
2022/04/29 09:29:19;;;;;;;5.45;4.30;;;17.00;67.00;;;;;;10160426;28;20040;-63
2022/04/29 09:34:10;;;;;;;5.80;4.00;;;17.00;67.00;;;;;;10164346;28;20024;-63
2022/04/29 09:44:30;;;;;;;5.63;3.97;;;17.20;66.70;;;;;;10167681;28;20100;-65
2022/04/29 09:49:27;;;;;;;4.82;3.20;;;17.50;66.20;;;;;;10152360;28;20039;-65
2022/04/29 09:54:24;;;;;;;6.28;3.88;;;17.70;65.90;;;;;;10148204;28;20028;-66
2022/04/29 09:59:15;;;;;;;6.80;4.35;;;18.00;65.40;;;;;;10160738;28;20017;-66
2022/04/29 10:04:06;;;;;;;6.13;3.58;;;18.30;65.10;;;;;;10150377;28;20062;-64
2022/04/29 10:08:58;;;;;;;7.70;3.50;;;18.50;64.70;;;;;;10166880;28;20032;-65
2022/04/29 10:13:50;;;;;;;4.53;3.85;;;18.70;64.10;;;;;;10151309;28;20066;-67
2022/04/29 10:23:55;;;;;;;8.18;4.35;;;19.00;63.00;;;;;;10140072;28;20039;-64
2022/04/29 10:28:47;;;;;;;4.95;3.90;;;19.20;62.30;;;;;;10153916;28;20464;-64
2022/04/29 10:33:38;;;;;;;3.75;3.28;;;19.20;61.90;;;;;;10153273;28;20123;-70
2022/04/29 10:38:34;;;;;;;7.28;4.40;;;19.20;61.00;;;;;;10153508;28;20036;-66
2022/04/29 10:43:25;;;;;;;7.70;4.43;;;19.20;60.20;;;;;;10149180;28;20040;-65
2022/04/29 10:48:33;;;;;;;5.05;3.45;;;19.30;59.50;;;;;;10148524;28;20036;-65
2022/04/29 10:53:24;;;;;;;9.45;3.88;;;19.40;56.70;;;;;;10146350;28;20032;-64
2022/04/29 10:58:21;;;;;;;5.43;2.78;;;19.50;58.30;;;;;;10153080;28;20036;-65
2022/04/29 11:03:35;;;;;;;3.88;2.78;;;19.90;57.30;;;;;;10130005;28;20574;-63
2022/04/29 11:08:29;;;;;;;4.32;2.75;;;19.90;55.00;;;;;;10151662;28;20024;-64
2022/04/29 11:13:26;;;;;;;4.03;3.05;;;19.90;55.20;;;;;;10156086;28;20013;-64
2022/04/29 11:18:28;;;;;;;6.35;3.45;;;20.20;55.20;;;;;;10150628;28;20403;-65
2022/04/29 11:28:40;;;;;;;6.20;2.83;;;20.60;52.90;;;;;;10151923;28;20106;-64
2022/04/29 11:33:31;;;;;;;4.80;2.45;;;21.00;52.70;;;;;;10150514;28;20025;-63
2022/04/29 11:38:24;;;;;;;4.88;2.40;;;21.20;51.90;;;;;;10160747;28;20099;-64
2022/04/29 11:43:21;;;;;;;4.22;2.42;;;21.40;51.40;;;;;;10150775;28;20120;-64
2022/04/29 11:48:12;;;;;;;3.17;2.65;;;21.10;50.80;;;;;;10151819;28;20052;-64
2022/04/29 11:53:10;;;;;;;3.00;2.50;;;21.00;46.80;;;;;;10163992;28;20030;-64
2022/04/29 11:58:01;;;;;;;4.43;2.35;;;21.00;49.50;;;;;;10155900;28;20114;-64
2022/04/29 12:02:55;;;;;;;4.53;2.50;;;21.10;49.50;;;;;;10158239;28;20090;-67
2022/04/29 12:07:46;;;;;;;4.30;2.88;;;21.20;49.10;;;;;;10164009;28;20028;-65
2022/04/29 12:12:37;;;;;;;4.25;3.08;;;21.40;48.60;;;;;;10157345;28;20092;-65
2022/04/29 12:17:58;;;;;;;3.95;2.53;;;21.90;48.20;;;;;;10156391;28;20106;-65
2022/04/29 12:22:50;;;;;;;4.25;3.03;;;22.20;46.40;;;;;;10147456;28;20103;-63
2022/04/29 12:27:41;;;;;;;5.05;2.88;;;22.50;47.70;;;;;;10158227;28;20133;-63
2022/04/29 12:37:49;;;;;;;5.70;2.88;;;23.60;47.40;;;;;;10149836;28;20124;-64
2022/04/29 12:42:40;;;;;;;2.60;2.15;;;23.30;46.50;;;;;;10150879;28;20032;-68
2022/04/29 12:47:42;;;;;;;4.22;2.63;;;22.80;47.20;;;;;;10146861;28;20262;-65
2022/04/29 12:52:49;;;;;;;3.42;3.13;;;22.00;47.10;;;;;;10147377;28;20040;-65
2022/04/29 12:57:41;;;;;;;3.30;2.60;;;21.70;47.00;;;;;;10148044;28;20073;-66
2022/04/29 13:02:32;;;;;;;5.38;2.75;;;21.80;46.50;;;;;;10150422;28;20040;-64
2022/04/29 13:07:22;;;;;;;5.50;2.95;;;21.60;46.50;;;;;;10157097;28;20094;-63
2022/04/29 13:12:13;;;;;;;4.95;2.65;;;21.40;46.70;;;;;;10144950;28;20044;-64
2022/04/29 13:17:04;;;;;;;3.97;2.70;;;21.70;46.40;;;;;;10152811;28;20402;-66
2022/04/29 13:21:55;;;;;;;5.53;3.08;;;22.60;46.20;;;;;;10145683;28;20024;-64
2022/04/29 13:26:46;;;;;;;4.25;2.90;;;23.40;45.20;;;;;;10156877;28;20498;-65
2022/04/29 13:31:36;;;;;;;5.68;3.13;;;23.00;45.60;;;;;;10152442;28;20578;-66
2022/04/29 13:36:27;;;;;;;4.45;3.03;;;23.90;45.10;;;;;;10168117;28;20299;-63
2022/04/29 13:41:18;;;;;;;6.13;3.15;;;25.80;43.40;;;;;;10149367;28;20111;-66
2022/04/29 13:46:10;;;;;;;5.43;3.03;;;26.50;42.50;;;;;;10154686;28;20043;-66
2022/04/29 13:51:01;;;;;;;5.63;3.50;;;26.10;42.60;;;;;;10147196;28;20024;-65
2022/04/29 13:55:53;;;;;;;7.22;3.83;;;24.50;43.30;;;;;;10154125;28;20394;-64
2022/04/29 14:00:47;;;;;;;4.32;2.70;;;23.50;43.20;;;;;;10144909;28;20024;-64
2022/04/29 14:05:38;;;;;;;6.93;4.17;;;22.60;43.60;;;;;;10147616;28;20028;-64
2022/04/29 14:10:29;;;;;;;4.70;2.90;;;21.90;44.00;;;;;;10145200;28;20349;-65
2022/04/29 14:15:20;;;;;;;2.85;2.30;;;21.60;43.80;;;;;;10147729;28;20407;-66
2022/04/29 14:20:11;;;;;;;4.93;2.97;;;21.50;43.70;;;;;;10154043;28;20032;-66
2022/04/29 14:25:02;;;;;;;3.78;2.58;;;21.50;43.50;;;;;;10141145;28;20530;-66
2022/04/29 14:29:53;;;;;;;3.05;2.25;;;21.50;43.30;;;;;;10151941;28;20019;-66
2022/04/29 14:34:44;;;;;;;6.80;3.38;;;21.70;43.00;;;;;;10149019;28;20039;-65
2022/04/29 14:39:35;;;;;;;7.38;3.03;;;21.60;43.00;;;;;;10148289;28;20577;-65
2022/04/29 14:44:27;;;;;;;4.57;2.88;;;21.80;42.80;;;;;;10156680;28;20059;-65
2022/04/29 14:49:18;;;;;;;4.28;3.13;;;21.90;42.70;;;;;;10153422;28;20023;-66
2022/04/29 14:54:09;;;;;;;3.67;2.92;;;22.10;42.60;;;;;;10152198;28;20096;-64
2022/04/29 14:59:00;;;;;;;3.20;2.30;;;22.20;42.50;;;;;;10154313;28;20028;-65
2022/04/29 15:03:52;;;;;;;4.45;2.75;;;22.40;42.40;;;;;;10154181;28;20040;-66
2022/04/29 15:08:42;;;;;;;5.60;3.00;;;22.50;42.50;;;;;;10160035;28;20024;-65
2022/04/29 15:18:43;;;;;;;3.03;2.50;;;23.20;41.90;;;;;;10148585;28;20044;-64
2022/04/29 15:23:34;;;;;;;3.13;2.05;;;23.30;41.80;;;;;;10147636;28;20037;-64
2022/04/29 15:28:28;;;;;;;2.75;2.13;;;23.30;41.60;;;;;;10158510;28;20071;-64
2022/04/29 15:33:20;;;;;;;3.65;2.90;;;23.00;41.60;;;;;;10154024;28;20104;-65
2022/04/29 15:38:11;;;;;;;6.75;4.63;;;22.50;41.90;;;;;;10152829;28;20631;-62
2022/04/29 15:43:12;;;;;;;5.95;3.03;;;23.10;41.40;;;;;;10152624;28;20040;-63
2022/04/29 15:48:02;;;;;;;4.70;2.97;;;24.70;40.10;;;;;;10152690;28;20985;-63
2022/04/29 15:52:53;;;;;;;5.13;3.30;;;24.70;39.80;;;;;;10158961;28;20054;-63
2022/04/29 15:57:44;;;;;;;4.28;2.13;;;24.90;39.60;;;;;;10161629;28;20104;-65
2022/04/29 16:02:36;;;;;;;6.28;3.85;;;26.40;38.80;;;;;;10153726;28;20051;-63
2022/04/29 16:07:27;;;;;;;6.25;3.78;;;26.40;38.80;;;;;;10144833;28;20383;-67
2022/04/29 16:12:17;;;;;;;6.13;3.80;;;27.20;37.80;;;;;;10160980;28;20115;-63
2022/04/29 16:17:08;;;;;;;3.50;2.90;;;28.50;37.20;;;;;;10155460;28;20406;-63
2022/04/29 16:21:59;;;;;;;4.57;2.83;;;28.50;36.30;;;;;;10154780;28;20495;-64
2022/04/29 16:26:50;;;;;;;4.10;2.75;;;27.00;37.20;;;;;;10149616;28;20047;-65
2022/04/29 16:31:41;;;;;;;4.30;2.80;;;26.50;37.40;;;;;;10148532;28;20078;-64
2022/04/29 16:36:33;;;;;;;6.78;3.35;;;26.40;37.30;;;;;;10148893;28;20542;-65
2022/04/29 16:41:23;;;;;;;4.53;3.05;;;25.40;37.90;;;;;;10161193;28;20020;-66
2022/04/29 16:46:20;;;;;;;5.47;3.03;;;23.50;39.10;;;;;;10150354;28;20529;-65
2022/04/29 16:51:11;;;;;;;4.72;3.33;;;22.40;40.00;;;;;;10151901;28;20031;-64
2022/04/29 16:56:02;;;;;;;4.00;2.78;;;21.80;40.20;;;;;;10150997;28;20028;-65
2022/04/29 17:00:54;;;;;;;5.75;4.03;;;21.50;40.30;;;;;;10154900;28;20028;-64
2022/04/29 17:05:45;;;;;;;4.05;3.38;;;21.10;40.30;;;;;;10155655;28;20028;-64
2022/04/29 17:10:37;;;;;;;11.05;5.70;;;21.10;40.50;;;;;;10163996;28;20024;-64
2022/04/29 17:15:28;;;;;;;7.15;3.50;;;20.90;40.60;;;;;;10140005;28;20032;-63
2022/04/29 17:20:19;;;;;;;5.32;3.10;;;20.80;40.80;;;;;;10152412;28;20561;-64
2022/04/29 17:25:09;;;;;;;3.88;3.30;;;20.70;41.20;;;;;;10153537;28;20433;-64
2022/04/29 17:30:00;;;;;;;4.68;3.08;;;20.50;41.40;;;;;;10151131;28;20023;-64
2022/04/29 17:34:51;;;;;;;5.57;3.38;;;20.40;41.90;;;;;;10154412;28;20020;-65
2022/04/29 17:44:54;;;;;;;5.72;3.50;;;20.20;42.40;;;;;;10156951;28;20174;-63
2022/04/29 17:54:55;;;;;;;6.90;3.55;;;20.00;43.00;;;;;;10145622;28;20032;-65
2022/04/29 17:59:47;;;;;;;5.60;3.92;;;19.80;43.30;;;;;;10146482;28;20050;-63
2022/04/29 18:04:37;;;;;;;8.05;3.83;;;19.80;43.50;;;;;;10144540;28;20155;-64
2022/04/29 18:09:28;;;;;;;4.10;3.20;;;19.80;43.60;;;;;;10163220;28;20553;-65
2022/04/29 18:14:19;;;;;;;5.28;4.05;;;19.70;44.00;;;;;;10153878;28;20369;-63
2022/04/29 18:19:10;;;;;;;7.47;3.97;;;19.70;44.80;;;;;;10148676;28;20423;-64
2022/04/29 18:24:00;;;;;;;5.85;4.10;;;19.60;44.50;;;;;;10161650;28;20382;-65
2022/04/29 18:28:51;;;;;;;6.53;4.80;;;19.60;44.70;;;;;;10168635;28;20037;-62
2022/04/29 18:33:41;;;;;;;5.30;4.55;;;19.60;44.70;;;;;;10165943;28;20028;-61
2022/04/29 18:38:32;;;;;;;14.27;8.32;;;19.50;44.90;;;;;;10170396;28;20026;-61
2022/04/29 18:43:23;;;;;;;6.55;4.32;;;19.40;45.10;;;;;;10156758;28;20055;-61
2022/04/29 18:48:13;;;;;;;6.32;4.18;;;19.30;46.10;;;;;;10161867;28;20518;-61
2022/04/29 18:53:04;;;;;;;11.68;6.72;;;19.20;45.60;;;;;;10154661;28;20045;-61
2022/04/29 18:57:55;;;;;;;7.35;4.63;;;19.30;45.70;;;;;;10169275;28;20020;-63
2022/04/29 19:02:46;;;;;;;8.35;4.40;;;19.30;45.70;;;;;;10164993;28;20486;-60
2022/04/29 19:07:36;;;;;;;12.18;7.72;;;19.30;45.70;;;;;;10167988;28;20435;-59
2022/04/29 19:12:28;;;;;;;7.93;4.47;;;19.20;45.70;;;;;;10178647;28;20065;-61
2022/04/29 19:17:22;;;;;;;7.15;4.50;;;19.20;45.90;;;;;;10144101;28;20023;-60
2022/04/29 19:22:14;;;;;;;14.57;5.13;;;19.00;46.10;;;;;;10143570;28;20040;-60
2022/04/29 19:27:05;;;;;;;7.28;4.63;;;19.00;46.30;;;;;;10168199;28;20178;-60
2022/04/29 19:31:56;;;;;;;7.05;4.40;;;18.90;46.50;;;;;;10169326;28;20024;-59
2022/04/29 19:36:47;;;;;;;8.10;4.53;;;18.90;46.60;;;;;;10172590;28;20020;-59
2022/04/29 19:41:38;;;;;;;10.10;5.75;;;18.80;46.80;;;;;;10157268;28;20586;-59
2022/04/29 19:46:29;;;;;;;9.10;4.88;;;18.80;47.00;;;;;;10152429;28;20283;-60
2022/04/29 19:51:20;;;;;;;9.68;5.80;;;18.80;47.20;;;;;;10151181;28;20484;-60
2022/04/29 19:56:12;;;;;;;7.28;5.07;;;18.80;47.30;;;;;;10141970;28;20032;-62
2022/04/29 20:03:42;;;;;;;10.20;5.53;;;18.80;47.60;;;;;;10166639;28;20560;-63
2022/04/29 20:06:17;;;;;;;6.47;4.45;;;18.70;47.60;;;;;;10159740;28;20544;-61
2022/04/29 20:11:08;;;;;;;6.43;4.70;;;18.70;47.80;;;;;;10176582;28;20099;-62
2022/04/29 20:15:59;;;;;;;7.53;3.97;;;18.70;48.10;;;;;;10145785;28;20376;-63
2022/04/29 20:20:53;;;;;;;8.95;5.90;;;18.60;48.40;;;;;;10150089;28;20536;-60
2022/04/29 20:25:44;;;;;;;9.18;4.72;;;18.60;48.40;;;;;;10156093;28;20135;-61
2022/04/29 20:30:35;;;;;;;7.95;4.30;;;18.50;48.50;;;;;;10166989;28;20548;-65
2022/04/29 20:35:26;;;;;;;8.32;5.88;;;18.40;48.80;;;;;;10142527;28;20059;-62
2022/04/29 20:45:26;;;;;;;12.63;6.18;;;18.30;48.90;;;;;;10155048;28;20086;-62
2022/04/29 20:50:18;;;;;;;13.70;5.88;;;18.30;49.10;;;;;;10154684;28;20096;-65
2022/04/29 20:55:09;;;;;;;10.43;5.57;;;18.30;49.40;;;;;;10158582;28;20398;-66
2022/04/29 21:00:00;;;;;;;10.13;5.85;;;18.20;49.50;;;;;;10156263;28;20040;-62
2022/04/29 21:04:50;;;;;;;8.30;5.57;;;18.20;49.80;;;;;;10161615;28;20051;-63
2022/04/29 21:09:41;;;;;;;9.30;5.80;;;18.10;49.90;;;;;;10166167;28;20020;-65
2022/04/29 21:14:34;;;;;;;9.88;6.05;;;18.20;50.30;;;;;;10162140;28;20398;-64
2022/04/29 21:19:24;;;;;;;9.02;5.88;;;18.00;50.30;;;;;;10151953;28;20052;-65
2022/04/29 21:24:15;;;;;;;8.25;5.55;;;18.10;50.50;;;;;;10155704;28;20071;-64
2022/04/29 21:34:15;;;;;;;11.35;6.50;;;17.90;51.00;;;;;;10158140;28;20097;-65
2022/04/29 21:39:05;;;;;;;8.35;5.63;;;17.80;51.50;;;;;;10166153;28;20394;-63
2022/04/29 21:43:56;;;;;;;8.13;5.75;;;17.70;51.70;;;;;;10152581;28;20426;-62
2022/04/29 21:48:46;;;;;;;8.20;5.25;;;17.70;52.00;;;;;;10155000;28;20047;-63
2022/04/29 21:53:37;;;;;;;8.35;5.32;;;17.60;52.00;;;;;;10148902;28;20035;-64
2022/04/29 21:58:28;;;;;;;7.32;6.00;;;17.60;52.20;;;;;;10146442;28;20024;-65
2022/04/29 22:03:18;;;;;;;7.50;5.53;;;17.40;52.40;;;;;;10151626;28;20043;-62
2022/04/29 22:08:09;;;;;;;6.25;5.07;;;17.40;52.50;;;;;;10159043;28;20032;-66
2022/04/29 22:13:00;;;;;;;5.60;4.82;;;17.30;52.70;;;;;;10162082;28;20276;-66
2022/04/29 22:17:51;;;;;;;7.55;4.50;;;17.50;52.80;;;;;;10165666;28;20077;-66
2022/04/29 22:22:42;;;;;;;8.65;4.57;;;17.50;52.80;;;;;;10149735;28;20067;-64
2022/04/29 22:27:33;;;;;;;7.20;4.68;;;17.60;52.80;;;;;;10161915;28;20048;-62
2022/04/29 22:32:23;;;;;;;8.85;4.53;;;17.60;52.70;;;;;;10148049;28;20082;-62
2022/04/29 22:37:16;;;;;;;7.35;4.60;;;17.60;52.80;;;;;;10148614;28;20402;-61
2022/04/29 22:42:10;;;;;;;5.93;4.47;;;17.40;53.10;;;;;;10163774;28;20043;-64
2022/04/29 22:47:00;;;;;;;7.93;4.97;;;17.20;53.50;;;;;;10133799;28;20044;-65
2022/04/29 22:51:51;;;;;;;6.47;3.95;;;17.10;53.60;;;;;;10146138;28;20089;-64
2022/04/29 22:56:42;;;;;;;6.47;3.65;;;17.10;53.70;;;;;;10155184;28;20031;-63
2022/04/29 23:01:32;;;;;;;5.72;3.83;;;17.10;53.60;;;;;;10148585;28;20576;-64
2022/04/29 23:06:23;;;;;;;4.65;3.65;;;17.00;54.20;;;;;;10159225;28;20502;-65
2022/04/29 23:11:13;;;;;;;6.65;4.30;;;16.90;54.30;;;;;;10152283;28;20025;-61
2022/04/29 23:16:04;;;;;;;6.07;4.35;;;16.90;54.30;;;;;;10174038;28;20043;-65
2022/04/29 23:20:55;;;;;;;6.95;4.97;;;16.90;54.50;;;;;;10169760;28;20509;-62
2022/04/29 23:25:47;;;;;;;5.78;4.05;;;16.80;54.80;;;;;;10154537;28;20427;-64
2022/04/29 23:30:38;;;;;;;5.80;3.80;;;16.60;55.20;;;;;;10169634;28;20029;-63
2022/04/29 23:35:29;;;;;;;6.78;4.40;;;16.50;55.40;;;;;;10156034;28;20165;-62
2022/04/29 23:40:19;;;;;;;6.47;4.00;;;16.40;55.90;;;;;;10165427;28;20054;-62
2022/04/29 23:45:10;;;;;;;6.90;4.53;;;16.40;56.10;;;;;;10149689;28;20045;-66
2022/04/29 23:50:01;;;;;;;7.65;4.78;;;16.30;56.30;;;;;;10160435;28;20202;-63
2022/04/29 23:54:52;;;;;;;4.85;3.88;;;16.20;57.00;;;;;;10153718;28;20179;-66
2022/04/29 23:59:43;;;;;;;6.20;4.13;;;16.20;57.10;;;;;;10158096;28;20019;-67
